sensor_id;sensor_type;location;lat;lon;timestamp;P1;durP1;ratioP1;P2;durP2;ratioP2
23242;SDS011;11790;49.578;11.214;2024-01-16T00:00:26;17.27;;;9.10;;
23242;SDS011;11790;49.578;11.214;2024-01-16T00:05:27;13.70;;;7.55;;
23242;SDS011;11790;49.578;11.214;2024-01-16T00:10:27;16.02;;;7.85;;
23242;SDS011;11790;49.578;11.214;2024-01-16T00:15:27;15.07;;;7.07;;
23242;SDS011;11790;49.578;11.214;2024-01-16T00:20:27;16.95;;;9.10;;
23242;SDS011;11790;49.578;11.214;2024-01-16T00:25:27;20.73;;;8.15;;
23242;SDS011;11790;49.578;11.214;2024-01-16T00:30:27;17.33;;;6.50;;
23242;SDS011;11790;49.578;11.214;2024-01-16T00:35:28;10.15;;;5.90;;
23242;SDS011;11790;49.578;11.214;2024-01-16T00:40:28;11.85;;;6.85;;
23242;SDS011;11790;49.578;11.214;2024-01-16T00:45:28;12.93;;;6.35;;
23242;SDS011;11790;49.578;11.214;2024-01-16T00:50:28;11.43;;;6.22;;
23242;SDS011;11790;49.578;11.214;2024-01-16T00:55:29;15.02;;;7.07;;
23242;SDS011;11790;49.578;11.214;2024-01-16T01:00:29;14.10;;;6.68;;
23242;SDS011;11790;49.578;11.214;2024-01-16T01:05:31;13.57;;;6.57;;
23242;SDS011;11790;49.578;11.214;2024-01-16T01:10:31;14.02;;;6.57;;
23242;SDS011;11790;49.578;11.214;2024-01-16T01:15:31;15.35;;;6.68;;
23242;SDS011;11790;49.578;11.214;2024-01-16T01:20:31;12.70;;;5.80;;
23242;SDS011;11790;49.578;11.214;2024-01-16T01:25:31;13.45;;;5.45;;
23242;SDS011;11790;49.578;11.214;2024-01-16T01:30:32;14.45;;;6.45;;
23242;SDS011;11790;49.578;11.214;2024-01-16T01:35:32;18.95;;;6.72;;
23242;SDS011;11790;49.578;11.214;2024-01-16T01:40:32;13.63;;;6.93;;
23242;SDS011;11790;49.578;11.214;2024-01-16T01:45:32;11.27;;;6.35;;
23242;SDS011;11790;49.578;11.214;2024-01-16T01:50:33;15.80;;;6.60;;
23242;SDS011;11790;49.578;11.214;2024-01-16T01:55:33;12.50;;;5.72;;
23242;SDS011;11790;49.578;11.214;2024-01-16T02:00:33;14.50;;;7.55;;
23242;SDS011;11790;49.578;11.214;2024-01-16T02:05:33;12.57;;;7.47;;
23242;SDS011;11790;49.578;11.214;2024-01-16T02:10:35;20.02;;;7.97;;
23242;SDS011;11790;49.578;11.214;2024-01-16T02:15:36;16.85;;;7.50;;
23242;SDS011;11790;49.578;11.214;2024-01-16T02:20:36;14.52;;;8.15;;
23242;SDS011;11790;49.578;11.214;2024-01-16T02:25:36;15.85;;;8.00;;
23242;SDS011;11790;49.578;11.214;2024-01-16T02:30:36;20.88;;;9.05;;
23242;SDS011;11790;49.578;11.214;2024-01-16T02:35:37;17.48;;;7.93;;
23242;SDS011;11790;49.578;11.214;2024-01-16T02:40:37;18.40;;;8.40;;
23242;SDS011;11790;49.578;11.214;2024-01-16T02:45:37;15.10;;;8.32;;
23242;SDS011;11790;49.578;11.214;2024-01-16T02:50:38;17.33;;;8.20;;
23242;SDS011;11790;49.578;11.214;2024-01-16T02:55:38;17.20;;;8.23;;
23242;SDS011;11790;49.578;11.214;2024-01-16T03:00:38;17.90;;;8.85;;
23242;SDS011;11790;49.578;11.214;2024-01-16T03:05:38;16.55;;;8.60;;
23242;SDS011;11790;49.578;11.214;2024-01-16T03:10:39;17.38;;;8.85;;
23242;SDS011;11790;49.578;11.214;2024-01-16T03:15:39;15.63;;;8.45;;
23242;SDS011;11790;49.578;11.214;2024-01-16T03:20:39;20.27;;;10.00;;
23242;SDS011;11790;49.578;11.214;2024-01-16T03:25:39;16.60;;;8.82;;
23242;SDS011;11790;49.578;11.214;2024-01-16T03:30:39;25.95;;;10.15;;
23242;SDS011;11790;49.578;11.214;2024-01-16T03:35:39;13.13;;;8.35;;
23242;SDS011;11790;49.578;11.214;2024-01-16T03:40:39;19.65;;;9.18;;
23242;SDS011;11790;49.578;11.214;2024-01-16T03:45:40;16.70;;;9.05;;
23242;SDS011;11790;49.578;11.214;2024-01-16T03:50:40;15.40;;;8.52;;
23242;SDS011;11790;49.578;11.214;2024-01-16T03:55:43;17.63;;;9.07;;
23242;SDS011;11790;49.578;11.214;2024-01-16T04:00:44;17.67;;;9.07;;
23242;SDS011;11790;49.578;11.214;2024-01-16T04:05:45;20.85;;;9.50;;
23242;SDS011;11790;49.578;11.214;2024-01-16T04:10:45;19.45;;;9.57;;
23242;SDS011;11790;49.578;11.214;2024-01-16T04:15:45;18.75;;;9.43;;
23242;SDS011;11790;49.578;11.214;2024-01-16T04:20:45;20.00;;;9.13;;
23242;SDS011;11790;49.578;11.214;2024-01-16T04:25:45;15.65;;;8.57;;
23242;SDS011;11790;49.578;11.214;2024-01-16T04:30:46;20.48;;;9.32;;
23242;SDS011;11790;49.578;11.214;2024-01-16T04:35:46;21.42;;;9.85;;
23242;SDS011;11790;49.578;11.214;2024-01-16T04:40:46;20.25;;;9.60;;
23242;SDS011;11790;49.578;11.214;2024-01-16T04:45:46;21.77;;;9.57;;
23242;SDS011;11790;49.578;11.214;2024-01-16T04:50:46;18.88;;;9.52;;
23242;SDS011;11790;49.578;11.214;2024-01-16T04:55:47;20.75;;;11.35;;
23242;SDS011;11790;49.578;11.214;2024-01-16T05:00:47;20.15;;;10.25;;
23242;SDS011;11790;49.578;11.214;2024-01-16T05:05:47;18.42;;;10.68;;
23242;SDS011;11790;49.578;11.214;2024-01-16T05:10:47;21.13;;;10.15;;
23242;SDS011;11790;49.578;11.214;2024-01-16T05:15:47;20.93;;;10.33;;
23242;SDS011;11790;49.578;11.214;2024-01-16T05:20:48;21.77;;;11.15;;
23242;SDS011;11790;49.578;11.214;2024-01-16T05:25:48;24.95;;;11.60;;
23242;SDS011;11790;49.578;11.214;2024-01-16T05:30:49;22.02;;;10.85;;
23242;SDS011;11790;49.578;11.214;2024-01-16T05:35:49;23.85;;;11.88;;
23242;SDS011;11790;49.578;11.214;2024-01-16T05:40:49;21.42;;;10.85;;
23242;SDS011;11790;49.578;11.214;2024-01-16T05:45:50;20.90;;;11.73;;
23242;SDS011;11790;49.578;11.214;2024-01-16T05:50:51;22.05;;;11.85;;
23242;SDS011;11790;49.578;11.214;2024-01-16T05:55:51;23.60;;;10.95;;
23242;SDS011;11790;49.578;11.214;2024-01-16T06:00:53;18.90;;;10.65;;
23242;SDS011;11790;49.578;11.214;2024-01-16T06:05:53;24.00;;;11.93;;
23242;SDS011;11790;49.578;11.214;2024-01-16T06:10:54;24.17;;;11.55;;
23242;SDS011;11790;49.578;11.214;2024-01-16T06:15:54;19.75;;;10.20;;
23242;SDS011;11790;49.578;11.214;2024-01-16T06:20:54;19.00;;;9.98;;
23242;SDS011;11790;49.578;11.214;2024-01-16T06:25:54;20.85;;;10.90;;
23242;SDS011;11790;49.578;11.214;2024-01-16T06:30:55;19.52;;;10.63;;
23242;SDS011;11790;49.578;11.214;2024-01-16T06:35:55;22.42;;;10.70;;
23242;SDS011;11790;49.578;11.214;2024-01-16T06:40:55;18.77;;;10.90;;
23242;SDS011;11790;49.578;11.214;2024-01-16T06:45:56;22.90;;;10.57;;
23242;SDS011;11790;49.578;11.214;2024-01-16T06:50:56;21.10;;;10.90;;
23242;SDS011;11790;49.578;11.214;2024-01-16T06:55:56;20.33;;;9.88;;
23242;SDS011;11790;49.578;11.214;2024-01-16T07:00:57;21.92;;;11.05;;
23242;SDS011;11790;49.578;11.214;2024-01-16T07:05:57;25.42;;;11.68;;
23242;SDS011;11790;49.578;11.214;2024-01-16T07:10:57;21.83;;;10.00;;
23242;SDS011;11790;49.578;11.214;2024-01-16T07:15:57;24.95;;;12.23;;
23242;SDS011;11790;49.578;11.214;2024-01-16T07:20:58;26.48;;;11.57;;
23242;SDS011;11790;49.578;11.214;2024-01-16T07:25:59;25.33;;;11.00;;
23242;SDS011;11790;49.578;11.214;2024-01-16T07:30:59;21.58;;;10.73;;
23242;SDS011;11790;49.578;11.214;2024-01-16T07:35:59;25.85;;;11.82;;
23242;SDS011;11790;49.578;11.214;2024-01-16T07:40:59;95.28;;;29.35;;
23242;SDS011;11790;49.578;11.214;2024-01-16T07:46:00;38.47;;;15.50;;
23242;SDS011;11790;49.578;11.214;2024-01-16T07:51:00;24.70;;;12.40;;
23242;SDS011;11790;49.578;11.214;2024-01-16T07:56:00;27.42;;;12.50;;
23242;SDS011;11790;49.578;11.214;2024-01-16T08:01:01;25.50;;;12.05;;
23242;SDS011;11790;49.578;11.214;2024-01-16T08:06:01;27.98;;;11.60;;
23242;SDS011;11790;49.578;11.214;2024-01-16T08:11:01;22.20;;;11.30;;
23242;SDS011;11790;49.578;11.214;2024-01-16T08:16:02;24.50;;;12.13;;
23242;SDS011;11790;49.578;11.214;2024-01-16T08:21:02;27.33;;;12.82;;
23242;SDS011;11790;49.578;11.214;2024-01-16T08:26:02;23.25;;;11.10;;
23242;SDS011;11790;49.578;11.214;2024-01-16T08:31:03;17.90;;;10.23;;
23242;SDS011;11790;49.578;11.214;2024-01-16T08:36:04;28.52;;;11.82;;
23242;SDS011;11790;49.578;11.214;2024-01-16T08:41:04;19.10;;;10.95;;
23242;SDS011;11790;49.578;11.214;2024-01-16T08:46:06;24.90;;;11.43;;
23242;SDS011;11790;49.578;11.214;2024-01-16T08:51:07;19.75;;;10.75;;
23242;SDS011;11790;49.578;11.214;2024-01-16T08:56:08;22.38;;;10.65;;
23242;SDS011;11790;49.578;11.214;2024-01-16T09:01:08;22.48;;;11.60;;
23242;SDS011;11790;49.578;11.214;2024-01-16T09:06:10;22.85;;;9.50;;
23242;SDS011;11790;49.578;11.214;2024-01-16T09:11:10;18.83;;;10.02;;
23242;SDS011;11790;49.578;11.214;2024-01-16T09:16:11;15.85;;;9.10;;
23242;SDS011;11790;49.578;11.214;2024-01-16T09:21:11;19.17;;;9.60;;
23242;SDS011;11790;49.578;11.214;2024-01-16T09:26:12;26.40;;;9.52;;
23242;SDS011;11790;49.578;11.214;2024-01-16T09:31:12;21.90;;;10.23;;
23242;SDS011;11790;49.578;11.214;2024-01-16T09:36:12;22.17;;;9.93;;
23242;SDS011;11790;49.578;11.214;2024-01-16T09:41:13;21.70;;;10.43;;
23242;SDS011;11790;49.578;11.214;2024-01-16T09:46:14;18.92;;;9.05;;
23242;SDS011;11790;49.578;11.214;2024-01-16T09:51:15;16.33;;;9.43;;
23242;SDS011;11790;49.578;11.214;2024-01-16T09:56:16;15.23;;;9.05;;
23242;SDS011;11790;49.578;11.214;2024-01-16T10:01:16;20.05;;;9.90;;
23242;SDS011;11790;49.578;11.214;2024-01-16T10:06:16;19.38;;;10.20;;
23242;SDS011;11790;49.578;11.214;2024-01-16T10:11:19;17.63;;;9.40;;
23242;SDS011;11790;49.578;11.214;2024-01-16T10:16:19;23.63;;;9.97;;
23242;SDS011;11790;49.578;11.214;2024-01-16T10:21:21;19.05;;;10.35;;
23242;SDS011;11790;49.578;11.214;2024-01-16T10:26:22;19.52;;;9.70;;
23242;SDS011;11790;49.578;11.214;2024-01-16T10:31:25;23.42;;;9.65;;
23242;SDS011;11790;49.578;11.214;2024-01-16T10:36:29;20.13;;;9.25;;
23242;SDS011;11790;49.578;11.214;2024-01-16T10:41:31;19.92;;;9.80;;
23242;SDS011;11790;49.578;11.214;2024-01-16T10:46:31;22.65;;;9.35;;
23242;SDS011;11790;49.578;11.214;2024-01-16T10:51:32;18.40;;;9.77;;
23242;SDS011;11790;49.578;11.214;2024-01-16T10:56:32;16.67;;;9.00;;
23242;SDS011;11790;49.578;11.214;2024-01-16T11:01:32;19.10;;;9.27;;
23242;SDS011;11790;49.578;11.214;2024-01-16T11:06:32;15.55;;;9.00;;
23242;SDS011;11790;49.578;11.214;2024-01-16T11:11:33;16.27;;;8.75;;
23242;SDS011;11790;49.578;11.214;2024-01-16T11:16:34;16.85;;;8.88;;
23242;SDS011;11790;49.578;11.214;2024-01-16T11:21:35;20.60;;;9.98;;
23242;SDS011;11790;49.578;11.214;2024-01-16T11:26:39;16.50;;;9.48;;
23242;SDS011;11790;49.578;11.214;2024-01-16T11:31:40;20.05;;;9.55;;
23242;SDS011;11790;49.578;11.214;2024-01-16T11:36:48;19.45;;;9.07;;
23242;SDS011;11790;49.578;11.214;2024-01-16T11:47:03;20.45;;;9.07;;
23242;SDS011;11790;49.578;11.214;2024-01-16T11:52:03;13.98;;;7.88;;
23242;SDS011;11790;49.578;11.214;2024-01-16T11:57:25;17.67;;;9.10;;
23242;SDS011;11790;49.578;11.214;2024-01-16T12:02:29;16.50;;;8.85;;
23242;SDS011;11790;49.578;11.214;2024-01-16T12:07:41;17.02;;;7.85;;
23242;SDS011;11790;49.578;11.214;2024-01-16T12:12:41;19.55;;;8.20;;
23242;SDS011;11790;49.578;11.214;2024-01-16T12:17:58;15.13;;;7.45;;
23242;SDS011;11790;49.578;11.214;2024-01-16T12:22:59;17.38;;;8.45;;
23242;SDS011;11790;49.578;11.214;2024-01-16T12:28:06;16.95;;;8.38;;
23242;SDS011;11790;49.578;11.214;2024-01-16T12:33:07;14.75;;;7.50;;
23242;SDS011;11790;49.578;11.214;2024-01-16T12:38:08;18.67;;;7.45;;
23242;SDS011;11790;49.578;11.214;2024-01-16T12:43:09;12.88;;;7.30;;
23242;SDS011;11790;49.578;11.214;2024-01-16T12:48:09;15.85;;;7.60;;
23242;SDS011;11790;49.578;11.214;2024-01-16T12:53:10;19.73;;;9.25;;
23242;SDS011;11790;49.578;11.214;2024-01-16T12:58:14;16.75;;;7.97;;
23242;SDS011;11790;49.578;11.214;2024-01-16T13:03:16;14.85;;;7.80;;
23242;SDS011;11790;49.578;11.214;2024-01-16T13:08:17;16.02;;;7.88;;
23242;SDS011;11790;49.578;11.214;2024-01-16T13:13:18;17.23;;;7.75;;
23242;SDS011;11790;49.578;11.214;2024-01-16T13:18:22;17.27;;;7.95;;
23242;SDS011;11790;49.578;11.214;2024-01-16T13:23:23;14.05;;;7.25;;
23242;SDS011;11790;49.578;11.214;2024-01-16T13:28:25;13.07;;;7.25;;
23242;SDS011;11790;49.578;11.214;2024-01-16T13:33:25;14.80;;;7.00;;
23242;SDS011;11790;49.578;11.214;2024-01-16T13:38:26;10.25;;;6.30;;
23242;SDS011;11790;49.578;11.214;2024-01-16T13:43:27;12.73;;;5.60;;
23242;SDS011;11790;49.578;11.214;2024-01-16T13:48:27;13.13;;;6.30;;
23242;SDS011;11790;49.578;11.214;2024-01-16T13:53:27;15.68;;;6.30;;
23242;SDS011;11790;49.578;11.214;2024-01-16T13:58:27;12.68;;;5.50;;
23242;SDS011;11790;49.578;11.214;2024-01-16T14:03:28;11.52;;;6.38;;
23242;SDS011;11790;49.578;11.214;2024-01-16T14:08:28;10.93;;;5.80;;
23242;SDS011;11790;49.578;11.214;2024-01-16T14:13:28;13.40;;;6.38;;
23242;SDS011;11790;49.578;11.214;2024-01-16T14:18:29;13.95;;;6.55;;
23242;SDS011;11790;49.578;11.214;2024-01-16T14:23:30;13.50;;;6.93;;
23242;SDS011;11790;49.578;11.214;2024-01-16T14:28:30;11.55;;;5.97;;
23242;SDS011;11790;49.578;11.214;2024-01-16T14:33:30;17.10;;;7.10;;
23242;SDS011;11790;49.578;11.214;2024-01-16T14:38:30;17.23;;;7.97;;
23242;SDS011;11790;49.578;11.214;2024-01-16T14:43:31;74.55;;;29.77;;
23242;SDS011;11790;49.578;11.214;2024-01-16T14:48:31;30.13;;;13.23;;
23242;SDS011;11790;49.578;11.214;2024-01-16T14:53:31;23.23;;;10.35;;
23242;SDS011;11790;49.578;11.214;2024-01-16T14:58:31;17.02;;;9.30;;
23242;SDS011;11790;49.578;11.214;2024-01-16T15:03:32;16.48;;;8.73;;
23242;SDS011;11790;49.578;11.214;2024-01-16T15:08:32;17.52;;;10.23;;
23242;SDS011;11790;49.578;11.214;2024-01-16T15:13:33;21.63;;;11.35;;
23242;SDS011;11790;49.578;11.214;2024-01-16T15:18:33;20.05;;;11.32;;
23242;SDS011;11790;49.578;11.214;2024-01-16T15:23:33;35.72;;;16.95;;
23242;SDS011;11790;49.578;11.214;2024-01-16T15:28:34;26.40;;;12.88;;
23242;SDS011;11790;49.578;11.214;2024-01-16T15:33:34;31.70;;;11.02;;
23242;SDS011;11790;49.578;11.214;2024-01-16T15:38:35;21.98;;;10.05;;
23242;SDS011;11790;49.578;11.214;2024-01-16T15:43:35;28.50;;;11.65;;
23242;SDS011;11790;49.578;11.214;2024-01-16T15:48:37;25.20;;;11.30;;
23242;SDS011;11790;49.578;11.214;2024-01-16T15:53:37;27.63;;;11.70;;
23242;SDS011;11790;49.578;11.214;2024-01-16T15:58:37;21.20;;;10.27;;
23242;SDS011;11790;49.578;11.214;2024-01-16T16:03:37;22.77;;;10.38;;
23242;SDS011;11790;49.578;11.214;2024-01-16T16:08:38;23.60;;;10.70;;
23242;SDS011;11790;49.578;11.214;2024-01-16T16:13:38;30.35;;;12.98;;
23242;SDS011;11790;49.578;11.214;2024-01-16T16:18:38;24.67;;;10.30;;
23242;SDS011;11790;49.578;11.214;2024-01-16T16:23:39;25.98;;;9.80;;
23242;SDS011;11790;49.578;11.214;2024-01-16T16:28:39;23.95;;;10.55;;
23242;SDS011;11790;49.578;11.214;2024-01-16T16:33:39;47.00;;;20.15;;
23242;SDS011;11790;49.578;11.214;2024-01-16T16:38:40;42.70;;;21.30;;
23242;SDS011;11790;49.578;11.214;2024-01-16T16:43:42;35.75;;;16.23;;
23242;SDS011;11790;49.578;11.214;2024-01-16T16:48:51;29.75;;;14.57;;
23242;SDS011;11790;49.578;11.214;2024-01-16T16:53:51;34.38;;;14.65;;
23242;SDS011;11790;49.578;11.214;2024-01-16T16:58:51;40.05;;;16.85;;
23242;SDS011;11790;49.578;11.214;2024-01-16T17:03:52;36.03;;;16.67;;
23242;SDS011;11790;49.578;11.214;2024-01-16T17:08:52;34.38;;;16.25;;
23242;SDS011;11790;49.578;11.214;2024-01-16T17:13:52;38.97;;;14.63;;
23242;SDS011;11790;49.578;11.214;2024-01-16T17:18:53;42.13;;;16.85;;
23242;SDS011;11790;49.578;11.214;2024-01-16T17:23:53;46.03;;;19.48;;
23242;SDS011;11790;49.578;11.214;2024-01-16T17:28:53;39.65;;;16.63;;
23242;SDS011;11790;49.578;11.214;2024-01-16T17:33:54;27.45;;;13.75;;
23242;SDS011;11790;49.578;11.214;2024-01-16T17:38:55;26.98;;;13.55;;
23242;SDS011;11790;49.578;11.214;2024-01-16T17:49:02;18.50;;;9.75;;
23242;SDS011;11790;49.578;11.214;2024-01-16T17:54:02;22.73;;;11.52;;
23242;SDS011;11790;49.578;11.214;2024-01-16T17:59:03;26.60;;;11.07;;
23242;SDS011;11790;49.578;11.214;2024-01-16T18:04:04;22.63;;;9.68;;
23242;SDS011;11790;49.578;11.214;2024-01-16T18:09:04;22.77;;;10.15;;
23242;SDS011;11790;49.578;11.214;2024-01-16T18:14:09;21.90;;;10.05;;
23242;SDS011;11790;49.578;11.214;2024-01-16T18:19:13;20.70;;;9.95;;
23242;SDS011;11790;49.578;11.214;2024-01-16T18:24:14;28.48;;;10.55;;
23242;SDS011;11790;49.578;11.214;2024-01-16T18:29:16;32.03;;;11.43;;
23242;SDS011;11790;49.578;11.214;2024-01-16T18:34:22;28.45;;;11.68;;
23242;SDS011;11790;49.578;11.214;2024-01-16T18:39:22;26.75;;;12.25;;
23242;SDS011;11790;49.578;11.214;2024-01-16T18:44:22;26.95;;;12.07;;
23242;SDS011;11790;49.578;11.214;2024-01-16T18:49:22;30.20;;;12.88;;
23242;SDS011;11790;49.578;11.214;2024-01-16T18:54:23;25.77;;;11.80;;
23242;SDS011;11790;49.578;11.214;2024-01-16T18:59:23;27.58;;;13.00;;
23242;SDS011;11790;49.578;11.214;2024-01-16T19:04:23;28.42;;;11.50;;
23242;SDS011;11790;49.578;11.214;2024-01-16T19:09:24;25.80;;;10.02;;
23242;SDS011;11790;49.578;11.214;2024-01-16T19:14:26;20.75;;;9.88;;
23242;SDS011;11790;49.578;11.214;2024-01-16T19:19:26;29.23;;;10.80;;
23242;SDS011;11790;49.578;11.214;2024-01-16T19:24:28;21.52;;;8.95;;
23242;SDS011;11790;49.578;11.214;2024-01-16T19:29:29;23.25;;;9.32;;
23242;SDS011;11790;49.578;11.214;2024-01-16T19:34:30;23.13;;;10.25;;
23242;SDS011;11790;49.578;11.214;2024-01-16T19:39:30;23.95;;;9.75;;
23242;SDS011;11790;49.578;11.214;2024-01-16T19:44:32;23.15;;;9.85;;
23242;SDS011;11790;49.578;11.214;2024-01-16T19:49:32;21.23;;;9.38;;
23242;SDS011;11790;49.578;11.214;2024-01-16T19:54:33;20.15;;;9.40;;
23242;SDS011;11790;49.578;11.214;2024-01-16T19:59:33;19.15;;;9.25;;
23242;SDS011;11790;49.578;11.214;2024-01-16T20:04:33;23.03;;;9.57;;
23242;SDS011;11790;49.578;11.214;2024-01-16T20:09:33;21.77;;;9.48;;
23242;SDS011;11790;49.578;11.214;2024-01-16T20:14:34;20.70;;;9.60;;
23242;SDS011;11790;49.578;11.214;2024-01-16T20:19:34;21.77;;;9.07;;
23242;SDS011;11790;49.578;11.214;2024-01-16T20:24:36;27.73;;;11.63;;
23242;SDS011;11790;49.578;11.214;2024-01-16T20:29:36;18.98;;;10.75;;
23242;SDS011;11790;49.578;11.214;2024-01-16T20:34:36;21.92;;;10.60;;
23242;SDS011;11790;49.578;11.214;2024-01-16T20:39:36;23.87;;;10.87;;
23242;SDS011;11790;49.578;11.214;2024-01-16T20:44:37;25.88;;;9.93;;
23242;SDS011;11790;49.578;11.214;2024-01-16T20:49:37;22.83;;;9.85;;
23242;SDS011;11790;49.578;11.214;2024-01-16T20:54:38;22.60;;;10.75;;
23242;SDS011;11790;49.578;11.214;2024-01-16T20:59:39;27.67;;;10.45;;
23242;SDS011;11790;49.578;11.214;2024-01-16T21:04:39;24.30;;;11.02;;
23242;SDS011;11790;49.578;11.214;2024-01-16T21:09:39;26.83;;;12.70;;
23242;SDS011;11790;49.578;11.214;2024-01-16T21:14:40;25.08;;;11.98;;
23242;SDS011;11790;49.578;11.214;2024-01-16T21:19:42;25.83;;;12.45;;
23242;SDS011;11790;49.578;11.214;2024-01-16T21:24:42;23.45;;;10.88;;
23242;SDS011;11790;49.578;11.214;2024-01-16T21:29:43;31.15;;;11.60;;
23242;SDS011;11790;49.578;11.214;2024-01-16T21:34:46;26.17;;;11.07;;
23242;SDS011;11790;49.578;11.214;2024-01-16T21:39:47;33.35;;;12.55;;
23242;SDS011;11790;49.578;11.214;2024-01-16T21:44:48;29.35;;;12.32;;
23242;SDS011;11790;49.578;11.214;2024-01-16T21:49:51;28.58;;;12.30;;
23242;SDS011;11790;49.578;11.214;2024-01-16T21:54:51;30.77;;;13.43;;
23242;SDS011;11790;49.578;11.214;2024-01-16T21:59:52;34.22;;;14.50;;
23242;SDS011;11790;49.578;11.214;2024-01-16T22:04:53;23.00;;;11.48;;
23242;SDS011;11790;49.578;11.214;2024-01-16T22:09:53;28.70;;;12.05;;
23242;SDS011;11790;49.578;11.214;2024-01-16T22:14:53;20.92;;;10.30;;
23242;SDS011;11790;49.578;11.214;2024-01-16T22:19:55;23.33;;;11.38;;
23242;SDS011;11790;49.578;11.214;2024-01-16T22:24:56;22.83;;;10.40;;
23242;SDS011;11790;49.578;11.214;2024-01-16T22:29:56;24.73;;;10.75;;
23242;SDS011;11790;49.578;11.214;2024-01-16T22:34:56;26.63;;;10.95;;
23242;SDS011;11790;49.578;11.214;2024-01-16T22:39:56;25.67;;;11.00;;
23242;SDS011;11790;49.578;11.214;2024-01-16T22:44:56;24.67;;;10.23;;
23242;SDS011;11790;49.578;11.214;2024-01-16T22:49:57;23.60;;;10.48;;
23242;SDS011;11790;49.578;11.214;2024-01-16T22:54:57;25.00;;;10.60;;
23242;SDS011;11790;49.578;11.214;2024-01-16T22:59:57;20.98;;;9.07;;
23242;SDS011;11790;49.578;11.214;2024-01-16T23:04:57;22.42;;;9.77;;
23242;SDS011;11790;49.578;11.214;2024-01-16T23:09:58;21.77;;;9.45;;
23242;SDS011;11790;49.578;11.214;2024-01-16T23:14:58;20.13;;;9.80;;
23242;SDS011;11790;49.578;11.214;2024-01-16T23:19:58;22.13;;;9.80;;
23242;SDS011;11790;49.578;11.214;2024-01-16T23:25:00;19.40;;;8.50;;
23242;SDS011;11790;49.578;11.214;2024-01-16T23:30:01;18.50;;;9.15;;
23242;SDS011;11790;49.578;11.214;2024-01-16T23:35:01;22.75;;;9.48;;
23242;SDS011;11790;49.578;11.214;2024-01-16T23:40:01;19.77;;;9.93;;
23242;SDS011;11790;49.578;11.214;2024-01-16T23:45:02;22.67;;;9.43;;
23242;SDS011;11790;49.578;11.214;2024-01-16T23:50:04;23.17;;;8.98;;
23242;SDS011;11790;49.578;11.214;2024-01-16T23:55:07;19.02;;;8.88;;
